Time;durP1;ratioP1;P1;durP2;ratioP2;P2;SDS_P1;SDS_P2;PMS_P1;PMS_P2;Temp;Humidity;BMP_temperature;BMP_pressure;BME280_temperature;BME280_humidity;BME280_pressure;Samples;Min_cycle;Max_cycle;Signal;HPM_P1;HPM_P2
2022/09/11 00:00:40;;;;;;;3.75;2.10;;;;;;;14.60;86.79;98356.97;7385549;19;20010;-72
2022/09/11 00:03:07;;;;;;;3.42;2.17;;;;;;;14.57;87.31;98352.00;7389752;19;20018;-72
2022/09/11 00:05:38;;;;;;;3.20;1.83;;;;;;;14.59;87.42;98353.50;7383152;19;20492;-72
2022/09/11 00:08:07;;;;;;;2.33;1.70;;;;;;;14.57;87.42;98352.84;7384227;19;20018;-72
2022/09/11 00:10:39;;;;;;;1.73;1.60;;;;;;;14.63;87.39;98346.78;7386667;19;20011;-72
2022/09/11 00:13:06;;;;;;;2.17;1.88;;;;;;;14.68;87.51;98343.56;7384992;19;20014;-72
2022/09/11 00:15:42;;;;;;;6.72;2.30;;;;;;;14.65;87.33;98339.44;7385465;19;20015;-72
2022/09/11 00:18:16;;;;;;;4.55;1.98;;;;;;;14.55;87.65;98338.88;7385173;19;20715;-72
2022/09/11 00:20:51;;;;;;;6.15;2.30;;;;;;;14.64;87.78;98343.13;7383053;19;20026;-72
2022/09/11 00:23:19;;;;;;;3.00;2.22;;;;;;;14.63;87.45;98341.44;7384344;19;20041;-71
2022/09/11 00:25:46;;;;;;;3.85;2.28;;;;;;;14.61;87.65;98337.31;7384804;19;20042;-72
2022/09/11 00:28:15;;;;;;;2.80;1.83;;;;;;;14.64;87.75;98336.94;7385235;19;20110;-71
2022/09/11 00:30:43;;;;;;;4.47;2.30;;;;;;;14.62;87.56;98328.34;7385402;19;20011;-72
2022/09/11 00:33:11;;;;;;;2.83;1.70;;;;;;;14.63;87.43;98330.78;7388289;19;20458;-72
2022/09/11 00:35:39;;;;;;;4.53;2.13;;;;;;;14.59;87.52;98334.84;7386617;19;20021;-73
2022/09/11 00:38:10;;;;;;;3.47;1.75;;;;;;;14.63;87.42;98335.31;7385897;19;20015;-72
2022/09/11 00:40:46;;;;;;;4.47;1.90;;;;;;;14.56;87.37;98334.38;7382342;19;20054;-72
2022/09/11 00:43:15;;;;;;;5.53;2.38;;;;;;;14.55;87.68;98327.41;7379234;19;20014;-72
2022/09/11 00:45:43;;;;;;;3.13;1.98;;;;;;;14.56;87.81;98337.03;7377905;19;20035;-72
2022/09/11 00:48:13;;;;;;;4.45;1.95;;;;;;;14.55;87.71;98330.88;7383501;19;20081;-72
2022/09/11 00:50:42;;;;;;;4.35;2.35;;;;;;;14.49;87.85;98336.91;7383385;19;20018;-73
2022/09/11 00:53:10;;;;;;;5.15;2.10;;;;;;;14.57;87.93;98331.53;7383028;19;20419;-71
2022/09/11 00:55:40;;;;;;;4.40;2.10;;;;;;;14.57;88.09;98333.38;7382092;19;20031;-72
2022/09/11 00:58:14;;;;;;;5.00;2.20;;;;;;;14.58;87.75;98332.34;7382581;19;20379;-72
2022/09/11 01:00:43;;;;;;;6.40;2.38;;;;;;;14.60;88.17;98325.84;7379814;19;20500;-72
2022/09/11 01:03:10;;;;;;;5.03;2.15;;;;;;;14.64;87.83;98328.94;7383093;19;20015;-73
2022/09/11 01:05:40;;;;;;;5.88;2.35;;;;;;;14.65;87.69;98322.63;7384709;19;20035;-72
2022/09/11 01:08:06;;;;;;;5.15;2.33;;;;;;;14.65;87.60;98334.09;7387309;19;20014;-73
2022/09/11 01:10:58;;;;;;;1.73;1.63;;;;;;;14.69;87.31;98326.56;7386443;19;20045;-73
2022/09/11 01:13:31;;;;;;;4.97;2.08;;;;;;;14.62;87.87;98325.66;7381046;19;20056;-72
2022/09/11 01:16:15;;;;;;;3.25;1.58;;;;;;;14.65;87.98;98328.78;7382581;19;20339;-72
2022/09/11 01:18:54;;;;;;;4.78;2.20;;;;;;;14.65;88.13;98330.63;7382692;19;20018;-73
2022/09/11 01:21:26;;;;;;;3.05;1.83;;;;;;;14.67;87.66;98324.09;7381691;19;20025;-73
2022/09/11 01:24:14;;;;;;;5.43;2.50;;;;;;;14.66;87.86;98318.97;7380879;19;20102;-72
2022/09/11 01:27:00;;;;;;;3.38;2.22;;;;;;;14.69;87.80;98331.91;7383096;19;20047;-71
2022/09/11 01:29:48;;;;;;;2.20;1.95;;;;;;;14.68;87.79;98331.06;7383444;19;20533;-72
2022/09/11 01:32:19;;;;;;;2.50;2.30;;;;;;;14.63;87.94;98329.97;7377059;19;20019;-71
2022/09/11 01:35:00;;;;;;;4.18;2.67;;;;;;;14.64;87.85;98334.28;7384114;19;20006;-72
2022/09/11 01:37:40;;;;;;;7.30;2.58;;;;;;;14.57;88.05;98330.72;7381555;19;20039;-72
2022/09/11 01:40:22;;;;;;;3.72;1.95;;;;;;;14.62;87.83;98333.66;7381275;19;20007;-72
2022/09/11 01:42:51;;;;;;;3.72;2.30;;;;;;;14.50;88.14;98330.56;7382098;19;20450;-72
2022/09/11 01:45:19;;;;;;;2.65;2.38;;;;;;;14.49;88.08;98340.41;7382863;19;20062;-73
2022/09/11 01:47:48;;;;;;;4.40;2.47;;;;;;;14.52;88.09;98341.88;7380888;19;20029;-72
2022/09/11 01:50:17;;;;;;;5.25;2.63;;;;;;;14.53;88.17;98335.56;7382732;19;20383;-73
2022/09/11 01:52:59;;;;;;;6.10;2.33;;;;;;;14.57;87.93;98336.84;7381323;19;20019;-72
2022/09/11 01:55:42;;;;;;;3.90;2.53;;;;;;;14.58;87.98;98345.66;7383063;19;20026;-73
2022/09/11 01:58:25;;;;;;;7.78;2.70;;;;;;;14.63;88.11;98348.63;7381779;19;20409;-73
2022/09/11 02:01:02;;;;;;;3.47;2.30;;;;;;;14.66;88.03;98341.06;7380875;19;20019;-73
2022/09/11 02:03:35;;;;;;;2.40;2.20;;;;;;;14.69;87.99;98337.22;7378530;19;20043;-73
2022/09/11 02:06:12;;;;;;;2.83;1.92;;;;;;;14.68;87.56;98338.25;7380404;19;20736;-73
2022/09/11 02:08:50;;;;;;;5.05;2.42;;;;;;;14.59;87.94;98345.50;7380352;19;20042;-73
2022/09/11 02:11:21;;;;;;;5.30;2.53;;;;;;;14.59;88.50;98350.81;7379017;19;20077;-72
2022/09/11 02:13:48;;;;;;;3.70;2.78;;;;;;;14.62;88.09;98346.97;7379791;19;20474;-72
2022/09/11 02:16:18;;;;;;;3.65;2.83;;;;;;;14.64;88.19;98352.91;7379941;19;20014;-73
2022/09/11 02:18:59;;;;;;;4.25;2.67;;;;;;;14.64;88.12;98347.59;7379129;19;20486;-72
2022/09/11 02:21:26;;;;;;;3.63;2.55;;;;;;;14.67;88.29;98349.91;7378540;19;20015;-73
2022/09/11 02:23:54;;;;;;;7.10;3.35;;;;;;;14.62;88.12;98353.13;7380272;19;20027;-72
2022/09/11 02:26:23;;;;;;;5.88;3.05;;;;;;;14.61;87.96;98353.28;7380864;19;20022;-73
2022/09/11 02:28:51;;;;;;;5.53;3.40;;;;;;;14.60;88.11;98357.78;7383545;19;20438;-72
2022/09/11 02:31:19;;;;;;;5.90;3.22;;;;;;;14.62;88.12;98357.63;7382202;19;20011;-72
2022/09/11 02:33:46;;;;;;;4.43;3.50;;;;;;;14.66;87.99;98364.22;7380908;19;20018;-72
2022/09/11 02:36:34;;;;;;;5.22;3.40;;;;;;;14.66;87.85;98356.22;7378466;19;20007;-72
2022/09/11 02:39:46;;;;;;;5.30;3.65;;;;;;;14.70;88.00;98360.19;7380682;19;20031;-72
2022/09/11 02:42:28;;;;;;;4.15;3.13;;;;;;;14.66;88.15;98357.06;7385196;19;20010;-72
2022/09/11 02:45:02;;;;;;;6.13;4.05;;;;;;;14.61;88.50;98359.47;7383397;19;20027;-73
2022/09/11 02:48:01;;;;;;;10.50;4.30;;;;;;;14.64;87.97;98364.41;7386724;19;20037;-72
2022/09/11 02:50:42;;;;;;;9.57;4.47;;;;;;;14.68;87.44;98363.03;7388763;19;20014;-72
2022/09/11 02:53:23;;;;;;;6.75;4.97;;;;;;;14.72;87.79;98376.81;7387486;19;20497;-73
2022/09/11 02:56:11;;;;;;;5.32;4.80;;;;;;;14.78;87.83;98369.94;7385272;19;20014;-72
2022/09/11 02:58:46;;;;;;;8.38;4.78;;;;;;;14.78;87.64;98378.75;7387165;19;20501;-72
2022/09/11 03:01:13;;;;;;;8.80;4.93;;;;;;;14.84;87.57;98375.34;7384901;19;20021;-72
2022/09/11 03:03:44;;;;;;;8.35;5.38;;;;;;;14.77;87.37;98371.78;7387136;19;20481;-72
2022/09/11 03:06:18;;;;;;;9.40;5.95;;;;;;;14.78;87.35;98368.09;7385510;19;20014;-71
2022/09/11 03:08:45;;;;;;;9.60;5.45;;;;;;;14.75;87.09;98372.97;7389677;19;20035;-72
2022/09/11 03:11:14;;;;;;;6.82;6.22;;;;;;;14.75;87.27;98367.66;7383268;19;20470;-73
2022/09/11 03:13:43;;;;;;;12.38;5.80;;;;;;;14.73;87.11;98373.13;7384289;19;20019;-72
2022/09/11 03:16:12;;;;;;;11.02;6.15;;;;;;;14.77;87.46;98361.13;7387150;19;20033;-72
2022/09/11 03:18:39;;;;;;;9.95;6.57;;;;;;;14.77;87.77;98365.59;7390319;19;20018;-72
2022/09/11 03:21:07;;;;;;;8.60;6.35;;;;;;;14.78;87.29;98370.75;7384344;19;20014;-76
2022/09/11 03:23:34;;;;;;;12.43;7.47;;;;;;;14.81;87.40;98365.06;7383026;19;20026;-72
2022/09/11 03:26:00;;;;;;;11.43;7.10;;;;;;;14.80;87.62;98371.41;7386652;19;20018;-72
2022/09/11 03:28:29;;;;;;;15.02;6.75;;;;;;;14.83;87.35;98370.22;7384281;19;20022;-72
2022/09/11 03:30:58;;;;;;;10.90;7.00;;;;;;;14.79;87.90;98369.75;7387062;19;20010;-72
2022/09/11 03:33:25;;;;;;;11.57;7.38;;;;;;;14.80;87.02;98368.75;7388866;19;20044;-72
2022/09/11 03:35:52;;;;;;;8.23;6.90;;;;;;;14.85;86.80;98369.03;7388403;19;20032;-72
2022/09/11 03:38:19;;;;;;;10.25;5.60;;;;;;;14.85;86.36;98362.84;7388341;19;20393;-71
2022/09/11 03:40:46;;;;;;;10.30;6.88;;;;;;;14.90;86.56;98361.31;7386906;19;20053;-72
2022/09/11 03:43:15;;;;;;;14.05;6.95;;;;;;;14.85;86.23;98366.38;7381403;19;20018;-72
2022/09/11 03:45:43;;;;;;;10.60;6.80;;;;;;;14.89;85.96;98356.16;7385063;19;20029;-72
2022/09/11 03:48:10;;;;;;;12.65;7.13;;;;;;;14.88;86.17;98360.66;7384350;19;20048;-72
2022/09/11 03:50:37;;;;;;;10.15;7.20;;;;;;;14.84;86.52;98359.38;7388315;19;20026;-72
2022/09/11 03:53:03;;;;;;;10.18;7.13;;;;;;;14.85;86.66;98363.69;7385494;19;20011;-72
2022/09/11 03:55:30;;;;;;;12.13;7.47;;;;;;;14.83;86.69;98373.69;7387384;19;20046;-72
2022/09/11 03:57:58;;;;;;;10.98;7.45;;;;;;;14.85;86.30;98371.69;7382011;19;20077;-72
2022/09/11 04:00:25;;;;;;;8.20;6.97;;;;;;;14.89;86.62;98372.97;7382973;19;20375;-71
2022/09/11 04:02:55;;;;;;;9.13;6.85;;;;;;;14.89;86.02;98374.81;7383249;19;20011;-72
2022/09/11 04:05:36;;;;;;;10.73;7.18;;;;;;;14.95;85.81;98384.72;7386205;19;20010;-71
2022/09/11 04:08:05;;;;;;;8.60;6.65;;;;;;;14.92;86.51;98380.59;7385184;19;20522;-71
2022/09/11 04:10:33;;;;;;;8.95;6.10;;;;;;;14.97;86.48;98368.56;7386780;19;20018;-71
2022/09/11 04:13:01;;;;;;;9.45;7.05;;;;;;;14.95;86.47;98378.56;7380971;19;20094;-71
2022/09/11 04:15:28;;;;;;;8.73;6.30;;;;;;;14.96;86.06;98382.91;7384299;19;20026;-71
2022/09/11 04:17:55;;;;;;;7.35;6.47;;;;;;;14.96;86.52;98382.91;7379983;19;20021;-71
2022/09/11 04:20:22;;;;;;;12.75;7.30;;;;;;;14.92;86.71;98377.91;7384698;19;20082;-71
2022/09/11 04:22:49;;;;;;;9.95;8.38;;;;;;;14.93;86.60;98384.91;7384874;19;20018;-71
2022/09/11 04:25:15;;;;;;;12.50;7.70;;;;;;;14.98;86.48;98383.53;7383245;19;20021;-71
2022/09/11 04:27:42;;;;;;;12.63;7.93;;;;;;;14.91;86.26;98386.94;7387108;19;20018;-71
2022/09/11 04:30:13;;;;;;;9.25;7.68;;;;;;;14.97;86.12;98382.69;7384516;19;20019;-72
2022/09/11 04:32:40;;;;;;;13.25;7.15;;;;;;;14.96;85.89;98382.91;7385559;19;20014;-71
2022/09/11 04:35:07;;;;;;;11.80;7.90;;;;;;;14.99;86.26;98388.69;7384897;19;20014;-72
2022/09/11 04:37:41;;;;;;;10.43;7.15;;;;;;;14.95;85.79;98389.22;7382347;19;20085;-71
2022/09/11 04:40:08;;;;;;;15.13;8.15;;;;;;;14.99;85.67;98394.00;7386906;19;20400;-71
2022/09/11 04:42:36;;;;;;;10.18;7.22;;;;;;;15.00;86.34;98397.50;7382879;19;22650;-71
2022/09/11 04:45:03;;;;;;;11.02;7.85;;;;;;;15.03;86.16;98407.78;7384348;19;20018;-71
2022/09/11 04:47:31;;;;;;;9.13;7.45;;;;;;;14.98;85.94;98405.69;7384252;19;20011;-71
2022/09/11 04:49:58;;;;;;;11.07;8.00;;;;;;;14.91;86.23;98405.56;7384952;19;20029;-71
2022/09/11 04:52:24;;;;;;;10.70;8.20;;;;;;;14.93;86.00;98416.06;7382816;19;20026;-71
2022/09/11 04:54:51;;;;;;;10.27;8.35;;;;;;;15.02;86.00;98414.94;7384630;19;20007;-71
2022/09/11 04:57:18;;;;;;;12.88;8.73;;;;;;;15.02;86.43;98420.28;7384308;19;20029;-71
2022/09/11 04:59:46;;;;;;;10.77;8.23;;;;;;;15.03;86.31;98427.25;7385610;19;20105;-71
2022/09/11 05:02:13;;;;;;;16.52;8.35;;;;;;;15.04;86.39;98418.25;7382215;19;20031;-71
2022/09/11 05:04:44;;;;;;;11.05;9.05;;;;;;;15.09;86.19;98426.53;7386124;19;20011;-71
2022/09/11 05:07:13;;;;;;;17.60;9.13;;;;;;;15.09;86.41;98429.19;7381706;19;20025;-71
2022/09/11 05:09:42;;;;;;;13.20;9.23;;;;;;;15.04;85.83;98433.44;7382637;19;20384;-72
2022/09/11 05:12:09;;;;;;;10.10;9.05;;;;;;;15.14;85.71;98444.66;7380769;19;20011;-71
2022/09/11 05:14:36;;;;;;;13.60;8.93;;;;;;;15.15;85.71;98435.63;7382969;19;20493;-71
2022/09/11 05:17:04;;;;;;;13.60;8.23;;;;;;;15.12;85.24;98442.16;7381329;19;20122;-71
2022/09/11 05:19:35;;;;;;;12.80;8.52;;;;;;;15.08;85.41;98448.03;7386145;19;20019;-72
2022/09/11 05:22:03;;;;;;;13.65;8.45;;;;;;;15.13;85.41;98446.47;7380734;19;20737;-71
2022/09/11 05:24:30;;;;;;;9.75;8.40;;;;;;;15.15;85.32;98451.63;7381039;19;20470;-71
2022/09/11 05:27:00;;;;;;;12.93;8.80;;;;;;;15.18;85.24;98445.91;7380418;19;20487;-71
2022/09/11 05:29:28;;;;;;;9.50;7.75;;;;;;;15.15;85.41;98454.28;7381838;19;20011;-71
2022/09/11 05:32:07;;;;;;;10.85;8.25;;;;;;;15.17;84.75;98448.78;7383414;19;20022;-71
2022/09/11 05:34:33;;;;;;;14.63;9.15;;;;;;;15.18;84.44;98456.59;7383453;19;20014;-71
2022/09/11 05:37:01;;;;;;;9.77;8.57;;;;;;;15.22;84.53;98465.03;7384601;19;20018;-71
2022/09/11 05:39:31;;;;;;;14.27;8.07;;;;;;;15.26;84.37;98469.00;7381726;19;20022;-72
2022/09/11 05:42:00;;;;;;;14.43;8.10;;;;;;;15.25;85.07;98464.69;7378445;19;20482;-71
2022/09/11 05:44:31;;;;;;;9.02;8.13;;;;;;;15.26;84.69;98475.16;7384316;19;20023;-71
2022/09/11 05:46:58;;;;;;;9.40;8.30;;;;;;;15.21;84.63;98480.19;7382796;19;20073;-71
2022/09/11 05:49:25;;;;;;;11.68;8.43;;;;;;;15.25;84.89;98476.16;7381685;19;20014;-71
2022/09/11 05:51:52;;;;;;;10.93;9.07;;;;;;;15.19;84.03;98479.53;7383648;19;20082;-70
2022/09/11 05:54:19;;;;;;;17.20;8.50;;;;;;;15.21;83.49;98487.38;7380964;19;20376;-71
2022/09/11 05:56:46;;;;;;;14.32;8.38;;;;;;;15.26;84.49;98483.16;7378941;19;20022;-72
2022/09/11 05:59:20;;;;;;;10.13;8.85;;;;;;;15.30;84.44;98480.97;7381556;19;20102;-71
2022/09/11 06:01:49;;;;;;;10.93;8.23;;;;;;;15.36;84.34;98486.38;7380268;19;20067;-71
2022/09/11 06:04:29;;;;;;;11.45;8.48;;;;;;;15.39;84.25;98479.84;7381526;19;20022;-70
2022/09/11 06:06:57;;;;;;;9.52;8.52;;;;;;;15.39;83.72;98487.84;7382404;19;20751;-71
2022/09/11 06:09:25;;;;;;;9.98;8.50;;;;;;;15.35;84.01;98495.38;7381144;19;20022;-71
2022/09/11 06:11:52;;;;;;;11.30;7.93;;;;;;;15.44;83.67;98501.44;7378755;19;20026;-71
2022/09/11 06:14:20;;;;;;;10.00;8.20;;;;;;;15.46;83.85;98509.28;7374668;19;20347;-71
2022/09/11 06:16:48;;;;;;;10.63;8.20;;;;;;;15.43;83.63;98513.13;7385744;19;20030;-71
2022/09/11 06:19:15;;;;;;;8.80;7.63;;;;;;;15.46;84.25;98506.59;7387140;19;20031;-70
2022/09/11 06:21:43;;;;;;;11.27;8.38;;;;;;;15.47;84.39;98510.91;7388516;19;20022;-71
2022/09/11 06:24:20;;;;;;;14.98;8.07;;;;;;;15.42;84.38;98519.47;7387511;19;20030;-71
2022/09/11 06:26:48;;;;;;;9.82;7.97;;;;;;;15.49;84.04;98515.06;7387469;19;20014;-71
2022/09/11 06:29:16;;;;;;;12.00;8.30;;;;;;;15.52;83.87;98511.19;7389831;19;20018;-71
2022/09/11 06:31:50;;;;;;;10.18;8.98;;;;;;;15.48;83.45;98520.56;7385758;19;20022;-71
2022/09/11 06:34:20;;;;;;;10.95;8.18;;;;;;;15.56;83.84;98525.81;7385573;19;20123;-70
2022/09/11 06:36:47;;;;;;;9.65;7.88;;;;;;;15.55;84.10;98532.16;7389596;19;20363;-71
2022/09/11 06:39:19;;;;;;;14.80;8.05;;;;;;;15.56;83.80;98531.13;7391461;19;20023;-71
2022/09/11 06:41:46;;;;;;;12.32;8.57;;;;;;;15.62;84.18;98532.25;7384858;19;20081;-71
2022/09/11 06:44:14;;;;;;;11.30;8.80;;;;;;;15.66;83.33;98529.03;7386725;19;20018;-71
2022/09/11 06:46:41;;;;;;;12.13;9.13;;;;;;;15.71;83.35;98533.84;7387121;19;20101;-71
2022/09/11 06:49:09;;;;;;;10.82;8.10;;;;;;;15.66;83.19;98534.34;7385903;19;20018;-71
2022/09/11 06:51:58;;;;;;;13.32;8.98;;;;;;;15.55;83.68;98534.81;7385854;19;20358;-71
2022/09/11 06:54:25;;;;;;;17.17;8.88;;;;;;;15.52;83.05;98540.53;7386886;19;20018;-71
2022/09/11 06:56:53;;;;;;;13.10;8.25;;;;;;;15.55;83.50;98540.16;7386183;19;20019;-71
2022/09/11 06:59:22;;;;;;;10.48;8.77;;;;;;;15.57;83.65;98540.81;7391610;19;20714;-71
2022/09/11 07:01:50;;;;;;;14.57;9.20;;;;;;;15.70;82.55;98542.88;7386027;19;20074;-71
2022/09/11 07:04:17;;;;;;;10.77;9.13;;;;;;;15.67;83.31;98545.88;7387378;19;20026;-71
2022/09/11 07:06:46;;;;;;;10.23;9.23;;;;;;;15.68;83.17;98537.69;7382273;19;20026;-70
2022/09/11 07:09:13;;;;;;;10.18;9.18;;;;;;;15.79;83.16;98539.91;7383926;19;20478;-71
2022/09/11 07:11:46;;;;;;;;;;;;;;;15.94;81.65;98544.41;7388038;19;20085;-71
2022/09/11 07:14:12;;;;;;;10.65;8.25;;;;;;;16.06;81.85;98545.59;7384603;19;19922;-71
2022/09/11 07:16:42;;;;;;;15.57;9.27;;;;;;;16.02;82.42;98546.97;7387871;19;20018;-71
2022/09/11 07:19:11;;;;;;;9.57;8.52;;;;;;;16.13;82.46;98546.50;7388274;19;20043;-71
2022/09/11 07:21:38;;;;;;;10.68;7.80;;;;;;;16.13;81.85;98543.00;7385358;19;20015;-71
2022/09/11 07:24:06;;;;;;;10.07;8.32;;;;;;;16.27;81.53;98551.97;7384048;19;20580;-71
2022/09/11 07:26:37;;;;;;;9.50;8.57;;;;;;;16.31;80.82;98545.25;7386119;19;20018;-71
2022/09/11 07:29:11;;;;;;;11.27;8.30;;;;;;;16.26;80.63;98551.16;7386707;19;20655;-71
2022/09/11 07:31:38;;;;;;;10.20;8.45;;;;;;;16.39;81.23;98547.81;7384795;19;20053;-71
2022/09/11 07:34:05;;;;;;;9.43;7.72;;;;;;;16.55;80.76;98549.41;7385295;19;20026;-70
2022/09/11 07:36:33;;;;;;;11.25;8.27;;;;;;;16.55;79.93;98558.25;7383502;19;21257;-70
2022/09/11 07:39:03;;;;;;;9.25;7.88;;;;;;;16.55;79.56;98554.75;7385257;19;20022;-71
2022/09/11 07:41:35;;;;;;;9.65;7.97;;;;;;;16.78;79.39;98562.63;7382847;19;20015;-70
2022/09/11 07:44:09;;;;;;;17.42;7.65;;;;;;;16.88;77.92;98557.81;7385188;19;20551;-71
2022/09/11 07:46:40;;;;;;;8.98;7.13;;;;;;;17.00;78.42;98560.78;7388211;19;20014;-70
2022/09/11 07:49:09;;;;;;;8.73;7.82;;;;;;;17.11;77.56;98565.59;7386769;19;20462;-70
2022/09/11 07:51:38;;;;;;;9.63;7.00;;;;;;;17.49;76.81;98563.44;7384937;19;20022;-70
2022/09/11 07:54:06;;;;;;;8.40;6.75;;;;;;;17.29;76.21;98563.25;7386452;19;20012;-71
2022/09/11 07:56:35;;;;;;;8.18;6.47;;;;;;;17.49;77.08;98568.78;7385851;19;20018;-71
2022/09/11 07:59:07;;;;;;;7.18;6.05;;;;;;;17.63;76.16;98577.69;7387446;19;20018;-70
2022/09/11 08:01:37;;;;;;;8.02;6.60;;;;;;;17.56;76.75;98574.16;7385648;19;20018;-71
2022/09/11 08:04:06;;;;;;;10.45;6.80;;;;;;;17.51;76.10;98576.63;7384432;19;20014;-71
2022/09/11 08:06:35;;;;;;;10.90;6.88;;;;;;;17.40;76.16;98585.97;7384928;19;20018;-71
2022/09/11 08:09:13;;;;;;;10.75;7.10;;;;;;;17.30;76.82;98585.50;7384311;19;20344;-71
2022/09/11 08:11:47;;;;;;;10.50;7.40;;;;;;;17.22;75.91;98585.63;7382961;19;20349;-71
2022/09/11 08:14:18;;;;;;;9.45;7.30;;;;;;;17.43;76.24;98582.94;7379880;19;20069;-71
2022/09/11 08:16:47;;;;;;;9.80;6.60;;;;;;;17.62;75.60;98580.59;7382463;19;20031;-71
2022/09/11 08:19:17;;;;;;;15.32;6.70;;;;;;;17.78;75.57;98582.94;7387136;19;20010;-71
2022/09/11 08:21:49;;;;;;;8.90;6.50;;;;;;;18.24;72.90;98587.72;7379463;19;20597;-71
2022/09/11 08:24:19;;;;;;;10.02;6.47;;;;;;;18.62;70.70;98595.31;7380027;19;20039;-71
2022/09/11 08:26:47;;;;;;;8.88;6.80;;;;;;;18.81;71.71;98586.50;7378541;19;20032;-71
2022/09/11 08:29:16;;;;;;;9.93;6.15;;;;;;;18.95;70.17;98584.66;7380715;19;20686;-71
2022/09/11 08:31:44;;;;;;;8.25;6.32;;;;;;;18.35;72.39;98584.50;7383654;19;20018;-72
2022/09/11 08:34:12;;;;;;;11.80;8.50;;;;;;;17.84;72.78;98598.25;7385705;19;20078;-72
2022/09/11 08:36:39;;;;;;;8.23;7.15;;;;;;;18.02;73.11;98591.56;7386464;19;20029;-71
2022/09/11 08:39:07;;;;;;;8.85;7.72;;;;;;;18.52;72.10;98584.13;7381330;19;20029;-70
2022/09/11 08:41:47;;;;;;;12.48;7.30;;;;;;;18.51;71.39;98588.69;7383486;19;20025;-72
2022/09/11 08:44:21;;;;;;;11.73;7.90;;;;;;;18.78;69.79;98588.78;7382294;19;20013;-70
2022/09/11 08:46:56;;;;;;;7.55;6.75;;;;;;;18.76;70.15;98594.31;7378527;19;20060;-71
2022/09/11 08:49:26;;;;;;;8.18;6.90;;;;;;;18.82;70.61;98593.50;7383571;19;20110;-72
2022/09/11 08:51:59;;;;;;;11.05;7.90;;;;;;;18.26;71.05;98599.06;7385109;19;20029;-71
2022/09/11 08:54:32;;;;;;;9.65;7.70;;;;;;;18.03;72.12;98596.69;7381726;19;20018;-71
2022/09/11 08:57:15;;;;;;;7.10;6.40;;;;;;;18.50;70.96;98599.59;7381878;19;20015;-71
2022/09/11 08:59:57;;;;;;;8.05;7.05;;;;;;;19.56;68.98;98591.66;7383939;19;20640;-71
2022/09/11 09:02:40;;;;;;;7.28;6.38;;;;;;;20.27;65.47;98592.78;7380318;19;20022;-71
2022/09/11 09:05:13;;;;;;;8.45;6.57;;;;;;;20.02;66.58;98601.53;7384378;19;20188;-72
2022/09/11 09:07:52;;;;;;;8.75;6.68;;;;;;;19.47;66.85;98604.50;7384382;19;20010;-71
2022/09/11 09:10:29;;;;;;;7.15;6.22;;;;;;;19.10;67.54;98602.44;7384873;19;20018;-71
2022/09/11 09:13:22;;;;;;;9.80;7.47;;;;;;;18.46;69.61;98595.63;7380167;19;20022;-70
2022/09/11 09:16:15;;;;;;;7.70;6.55;;;;;;;18.17;71.63;98602.97;7379788;19;21813;-71
2022/09/11 09:18:45;;;;;;;8.57;7.13;;;;;;;18.20;72.22;98608.75;7379807;19;21496;-71
2022/09/11 09:21:51;;;;;;;14.73;7.43;;;;;;;18.54;69.97;98606.19;7378495;19;20014;-71
2022/09/11 09:24:19;;;;;;;7.13;5.93;;;;;;;18.64;71.39;98606.63;7383916;19;20041;-72
2022/09/11 09:26:55;;;;;;;5.77;5.27;;;;;;;19.28;70.04;98600.78;7380879;19;20026;-71
2022/09/11 09:29:23;;;;;;;;;;;;;;;19.56;66.59;98602.41;7383271;19;20034;-71
2022/09/11 09:32:05;;;;;;;7.95;5.75;;;;;;;19.43;65.65;98607.78;7383205;19;19929;-72
2022/09/11 09:34:36;;;;;;;5.32;4.65;;;;;;;19.60;63.64;98609.03;7382688;19;20018;-72
2022/09/11 09:37:16;;;;;;;7.53;5.22;;;;;;;19.50;67.41;98609.44;7380219;19;20010;-71
2022/09/11 09:39:44;;;;;;;6.60;5.25;;;;;;;18.96;69.06;98610.47;7379575;19;20397;-72
2022/09/11 09:42:20;;;;;;;6.30;5.38;;;;;;;18.81;68.82;98609.81;7380230;19;20029;-72
2022/09/11 09:45:02;;;;;;;6.40;5.40;;;;;;;18.64;66.80;98606.63;7383643;19;20047;-71
2022/09/11 09:47:28;;;;;;;6.93;5.95;;;;;;;19.04;67.49;98620.16;7383319;19;20018;-72
2022/09/11 09:49:58;;;;;;;9.02;6.78;;;;;;;19.20;68.42;98610.91;7382665;19;20018;-71
2022/09/11 09:52:31;;;;;;;8.30;5.85;;;;;;;19.37;68.10;98611.31;7389393;19;20029;-71
2022/09/11 09:55:00;;;;;;;6.03;5.28;;;;;;;19.26;65.76;98610.88;7389181;19;20019;-71
2022/09/11 09:57:36;;;;;;;5.35;4.75;;;;;;;19.43;66.78;98611.31;7390663;19;20002;-71
2022/09/11 10:00:09;;;;;;;5.32;4.82;;;;;;;19.12;65.51;98609.25;7390242;19;20014;-70
2022/09/11 10:02:41;;;;;;;6.53;5.85;;;;;;;19.11;66.40;98606.75;7390000;19;20047;-70
2022/09/11 10:05:12;;;;;;;5.53;5.03;;;;;;;19.05;68.93;98611.06;7393212;19;20015;-70
2022/09/11 10:07:50;;;;;;;5.30;4.82;;;;;;;18.71;68.45;98604.78;7388426;19;20045;-70
2022/09/11 10:10:28;;;;;;;6.28;4.68;;;;;;;18.50;70.27;98602.25;7385956;19;20011;-70
2022/09/11 10:12:58;;;;;;;5.57;5.07;;;;;;;18.33;70.52;98610.66;7388368;19;20015;-70
2022/09/11 10:15:47;;;;;;;6.10;5.05;;;;;;;19.03;67.37;98610.44;7385887;19;20101;-70
2022/09/11 10:18:29;;;;;;;6.82;6.15;;;;;;;19.67;62.43;98606.38;7387285;19;20026;-71
2022/09/11 10:21:11;;;;;;;5.80;5.10;;;;;;;20.47;60.60;98604.25;7392012;19;20014;-70
2022/09/11 10:23:45;;;;;;;14.38;6.90;;;;;;;20.34;59.24;98612.38;7385350;19;20086;-70
2022/09/11 10:26:19;;;;;;;7.63;6.65;;;;;;;20.54;61.02;98610.47;7386622;19;20074;-71
2022/09/11 10:28:46;;;;;;;7.63;6.20;;;;;;;20.25;60.77;98605.59;7387815;19;20029;-71
2022/09/11 10:31:15;;;;;;;9.60;6.53;;;;;;;19.90;64.78;98605.91;7388124;19;20049;-70
2022/09/11 10:33:48;;;;;;;8.20;6.95;;;;;;;19.25;66.92;98611.09;7388271;19;20026;-71
2022/09/11 10:36:21;;;;;;;12.63;7.18;;;;;;;18.17;71.37;98613.69;7388397;19;20019;-71
2022/09/11 10:38:48;;;;;;;11.68;7.70;;;;;;;17.78;73.18;98615.06;7391058;19;20015;-71
2022/09/11 10:41:27;;;;;;;9.10;7.80;;;;;;;17.61;75.26;98613.69;7384416;19;20065;-70
2022/09/11 10:43:55;;;;;;;9.95;8.38;;;;;;;17.59;75.14;98610.38;7380630;19;20030;-70
2022/09/11 10:46:36;;;;;;;10.10;8.02;;;;;;;17.61;77.00;98608.34;7386303;19;20014;-71
2022/09/11 10:49:22;;;;;;;8.20;7.50;;;;;;;17.68;76.10;98615.41;7380938;19;20031;-70
2022/09/11 10:52:05;;;;;;;12.55;8.77;;;;;;;17.50;75.08;98615.88;7389140;19;20010;-70
2022/09/11 10:55:01;;;;;;;8.75;7.88;;;;;;;17.43;77.73;98617.72;7387861;19;20022;-71
2022/09/11 10:57:37;;;;;;;9.15;8.27;;;;;;;17.40;77.54;98607.38;7386828;19;20018;-71
2022/09/11 11:00:10;;;;;;;9.65;8.25;;;;;;;17.58;75.42;98612.25;7382827;19;20022;-71
2022/09/11 11:02:43;;;;;;;7.57;6.88;;;;;;;18.08;73.83;98604.97;7385112;19;20021;-71
2022/09/11 11:05:25;;;;;;;11.27;9.43;;;;;;;18.54;72.12;98600.84;7390366;19;20055;-72
2022/09/11 11:07:52;;;;;;;10.68;9.52;;;;;;;18.92;67.83;98595.78;7383078;19;20044;-70
2022/09/11 11:10:32;;;;;;;9.75;8.73;;;;;;;19.38;62.50;98599.53;7388543;19;20472;-71
2022/09/11 11:13:05;;;;;;;7.88;7.05;;;;;;;19.52;64.04;98598.50;7389528;19;20021;-71
2022/09/11 11:15:43;;;;;;;9.15;8.25;;;;;;;19.76;65.32;98596.25;7386332;19;20789;-71
2022/09/11 11:18:30;;;;;;;11.90;7.60;;;;;;;19.59;62.76;98587.75;7387207;19;20289;-70
2022/09/11 11:21:41;;;;;;;8.20;6.50;;;;;;;19.68;64.83;98589.22;7381887;19;20601;-70
2022/09/11 11:24:16;;;;;;;9.43;6.57;;;;;;;19.72;66.39;98585.94;7382179;19;20018;-70
2022/09/11 11:27:10;;;;;;;8.90;6.05;;;;;;;19.68;65.18;98590.03;7388257;19;20021;-70
2022/09/11 11:30:01;;;;;;;6.82;5.15;;;;;;;20.01;65.78;98591.84;7386085;19;20031;-70
2022/09/11 11:32:38;;;;;;;8.82;5.18;;;;;;;19.84;64.35;98602.19;7376337;19;20021;-71
2022/09/11 11:35:52;;;;;;;5.88;5.28;;;;;;;19.28;63.26;98595.41;7380625;19;20021;-71
2022/09/11 11:38:32;;;;;;;6.43;5.72;;;;;;;18.96;63.79;98593.56;7383553;19;20019;-71
2022/09/11 11:41:06;;;;;;;10.50;6.05;;;;;;;18.91;67.17;98596.84;7385730;19;20048;-70
2022/09/11 11:43:37;;;;;;;6.57;5.88;;;;;;;18.90;65.67;98586.31;7379575;19;20671;-71
2022/09/11 11:46:12;;;;;;;7.15;6.47;;;;;;;18.71;67.12;98593.25;7384109;19;20039;-70
2022/09/11 11:48:44;;;;;;;7.65;6.88;;;;;;;18.81;64.01;98597.22;7382227;19;20036;-70
2022/09/11 11:51:16;;;;;;;8.52;6.15;;;;;;;19.06;64.40;98597.47;7386426;19;20426;-71
2022/09/11 11:53:54;;;;;;;6.95;6.25;;;;;;;19.23;63.10;98597.06;7384155;19;20021;-71
2022/09/11 11:56:37;;;;;;;7.57;6.65;;;;;;;19.43;60.71;98594.38;7381285;19;20022;-70